sensor_id;sensor_type;location;lat;lon;timestamp;P1;durP1;ratioP1;P2;durP2;ratioP2
14268;SDS011;7218;51.480;7.006;2022-07-12T00:01:51;5.93;;;4.40;;
14268;SDS011;7218;51.480;7.006;2022-07-12T00:04:18;4.85;;;4.35;;
14268;SDS011;7218;51.480;7.006;2022-07-12T00:06:44;5.13;;;4.63;;
14268;SDS011;7218;51.480;7.006;2022-07-12T00:09:11;5.82;;;4.82;;
14268;SDS011;7218;51.480;7.006;2022-07-12T00:11:38;5.18;;;4.65;;
14268;SDS011;7218;51.480;7.006;2022-07-12T00:14:05;5.53;;;4.80;;
14268;SDS011;7218;51.480;7.006;2022-07-12T00:16:33;5.53;;;4.45;;
14268;SDS011;7218;51.480;7.006;2022-07-12T00:18:59;5.30;;;4.70;;
14268;SDS011;7218;51.480;7.006;2022-07-12T00:21:26;5.78;;;5.15;;
14268;SDS011;7218;51.480;7.006;2022-07-12T00:23:53;5.90;;;5.03;;
14268;SDS011;7218;51.480;7.006;2022-07-12T00:26:19;5.65;;;5.10;;
14268;SDS011;7218;51.480;7.006;2022-07-12T00:28:46;6.18;;;4.93;;
14268;SDS011;7218;51.480;7.006;2022-07-12T00:31:12;6.22;;;4.40;;
14268;SDS011;7218;51.480;7.006;2022-07-12T00:33:40;6.15;;;4.25;;
14268;SDS011;7218;51.480;7.006;2022-07-12T00:36:07;4.70;;;4.18;;
14268;SDS011;7218;51.480;7.006;2022-07-12T00:38:34;4.50;;;4.10;;
14268;SDS011;7218;51.480;7.006;2022-07-12T00:41:01;4.95;;;4.00;;
14268;SDS011;7218;51.480;7.006;2022-07-12T00:43:27;4.63;;;4.13;;
14268;SDS011;7218;51.480;7.006;2022-07-12T00:45:54;5.07;;;3.88;;
14268;SDS011;7218;51.480;7.006;2022-07-12T00:48:20;4.20;;;3.78;;
14268;SDS011;7218;51.480;7.006;2022-07-12T00:50:48;3.83;;;3.50;;
14268;SDS011;7218;51.480;7.006;2022-07-12T00:53:15;4.63;;;3.25;;
14268;SDS011;7218;51.480;7.006;2022-07-12T00:55:48;3.60;;;3.30;;
14268;SDS011;7218;51.480;7.006;2022-07-12T00:58:14;4.10;;;3.58;;
14268;SDS011;7218;51.480;7.006;2022-07-12T01:00:41;5.50;;;3.50;;
14268;SDS011;7218;51.480;7.006;2022-07-12T01:03:08;3.95;;;3.17;;
14268;SDS011;7218;51.480;7.006;2022-07-12T01:05:34;4.50;;;3.55;;
14268;SDS011;7218;51.480;7.006;2022-07-12T01:08:02;4.38;;;3.63;;
14268;SDS011;7218;51.480;7.006;2022-07-12T01:10:30;4.20;;;3.80;;
14268;SDS011;7218;51.480;7.006;2022-07-12T01:12:57;4.50;;;3.90;;
14268;SDS011;7218;51.480;7.006;2022-07-12T01:15:24;4.30;;;3.88;;
14268;SDS011;7218;51.480;7.006;2022-07-12T01:17:53;4.55;;;3.83;;
14268;SDS011;7218;51.480;7.006;2022-07-12T01:20:21;5.35;;;4.07;;
14268;SDS011;7218;51.480;7.006;2022-07-12T01:22:51;4.70;;;3.97;;
14268;SDS011;7218;51.480;7.006;2022-07-12T01:25:18;5.05;;;4.50;;
14268;SDS011;7218;51.480;7.006;2022-07-12T01:27:45;4.72;;;4.03;;
14268;SDS011;7218;51.480;7.006;2022-07-12T01:30:12;4.60;;;4.03;;
14268;SDS011;7218;51.480;7.006;2022-07-12T01:32:38;5.13;;;4.20;;
14268;SDS011;7218;51.480;7.006;2022-07-12T01:35:06;5.07;;;4.22;;
14268;SDS011;7218;51.480;7.006;2022-07-12T01:37:33;4.72;;;4.30;;
14268;SDS011;7218;51.480;7.006;2022-07-12T01:40:03;5.15;;;4.60;;
14268;SDS011;7218;51.480;7.006;2022-07-12T01:42:31;5.05;;;4.55;;
14268;SDS011;7218;51.480;7.006;2022-07-12T01:44:58;5.13;;;4.57;;
14268;SDS011;7218;51.480;7.006;2022-07-12T01:47:26;6.68;;;4.40;;
14268;SDS011;7218;51.480;7.006;2022-07-12T01:49:53;6.18;;;4.47;;
14268;SDS011;7218;51.480;7.006;2022-07-12T01:52:20;4.60;;;4.20;;
14268;SDS011;7218;51.480;7.006;2022-07-12T01:54:46;4.35;;;3.95;;
14268;SDS011;7218;51.480;7.006;2022-07-12T01:57:14;4.95;;;4.40;;
14268;SDS011;7218;51.480;7.006;2022-07-12T01:59:42;4.85;;;4.32;;
14268;SDS011;7218;51.480;7.006;2022-07-12T02:02:09;5.43;;;4.90;;
14268;SDS011;7218;51.480;7.006;2022-07-12T02:04:35;5.72;;;5.10;;
14268;SDS011;7218;51.480;7.006;2022-07-12T02:07:03;5.50;;;5.00;;
14268;SDS011;7218;51.480;7.006;2022-07-12T02:09:29;6.15;;;5.55;;
14268;SDS011;7218;51.480;7.006;2022-07-12T02:11:56;5.90;;;4.97;;
14268;SDS011;7218;51.480;7.006;2022-07-12T02:14:24;5.50;;;5.05;;
14268;SDS011;7218;51.480;7.006;2022-07-12T02:16:51;5.53;;;5.03;;
14268;SDS011;7218;51.480;7.006;2022-07-12T02:19:18;6.50;;;4.95;;
14268;SDS011;7218;51.480;7.006;2022-07-12T02:21:45;4.93;;;4.43;;
14268;SDS011;7218;51.480;7.006;2022-07-12T02:24:11;4.65;;;4.20;;
14268;SDS011;7218;51.480;7.006;2022-07-12T02:26:38;4.72;;;3.88;;
14268;SDS011;7218;51.480;7.006;2022-07-12T02:29:05;6.13;;;3.72;;
14268;SDS011;7218;51.480;7.006;2022-07-12T02:31:33;4.30;;;3.90;;
14268;SDS011;7218;51.480;7.006;2022-07-12T02:33:59;4.50;;;4.10;;
14268;SDS011;7218;51.480;7.006;2022-07-12T02:36:26;4.38;;;3.97;;
14268;SDS011;7218;51.480;7.006;2022-07-12T02:38:52;4.10;;;3.70;;
14268;SDS011;7218;51.480;7.006;2022-07-12T02:41:19;5.50;;;3.97;;
14268;SDS011;7218;51.480;7.006;2022-07-12T02:43:45;4.78;;;3.63;;
14268;SDS011;7218;51.480;7.006;2022-07-12T02:46:12;4.75;;;4.05;;
14268;SDS011;7218;51.480;7.006;2022-07-12T02:48:41;4.60;;;4.18;;
14268;SDS011;7218;51.480;7.006;2022-07-12T02:51:08;3.85;;;3.55;;
14268;SDS011;7218;51.480;7.006;2022-07-12T02:53:35;3.95;;;3.55;;
14268;SDS011;7218;51.480;7.006;2022-07-12T02:56:02;4.10;;;3.72;;
14268;SDS011;7218;51.480;7.006;2022-07-12T02:58:29;3.83;;;3.42;;
14268;SDS011;7218;51.480;7.006;2022-07-12T03:00:56;4.20;;;3.80;;
14268;SDS011;7218;51.480;7.006;2022-07-12T03:03:22;3.75;;;3.42;;
14268;SDS011;7218;51.480;7.006;2022-07-12T03:05:50;3.70;;;3.38;;
14268;SDS011;7218;51.480;7.006;2022-07-12T03:08:17;4.57;;;3.33;;
14268;SDS011;7218;51.480;7.006;2022-07-12T03:10:43;4.28;;;3.10;;
14268;SDS011;7218;51.480;7.006;2022-07-12T03:13:10;3.58;;;3.30;;
14268;SDS011;7218;51.480;7.006;2022-07-12T03:15:36;4.47;;;3.50;;
14268;SDS011;7218;51.480;7.006;2022-07-12T03:18:03;4.00;;;3.28;;
14268;SDS011;7218;51.480;7.006;2022-07-12T03:20:30;4.60;;;3.40;;
14268;SDS011;7218;51.480;7.006;2022-07-12T03:22:58;4.03;;;3.38;;
14268;SDS011;7218;51.480;7.006;2022-07-12T03:25:25;4.50;;;3.38;;
14268;SDS011;7218;51.480;7.006;2022-07-12T03:27:51;3.95;;;3.42;;
14268;SDS011;7218;51.480;7.006;2022-07-12T03:30:19;4.00;;;3.60;;
14268;SDS011;7218;51.480;7.006;2022-07-12T03:32:46;4.47;;;3.60;;
14268;SDS011;7218;51.480;7.006;2022-07-12T03:35:12;4.28;;;3.88;;
14268;SDS011;7218;51.480;7.006;2022-07-12T03:37:40;5.82;;;3.58;;
14268;SDS011;7218;51.480;7.006;2022-07-12T03:40:09;5.07;;;3.70;;
14268;SDS011;7218;51.480;7.006;2022-07-12T03:42:37;4.07;;;3.75;;
14268;SDS011;7218;51.480;7.006;2022-07-12T03:45:04;4.28;;;3.78;;
14268;SDS011;7218;51.480;7.006;2022-07-12T03:47:31;4.50;;;3.65;;
14268;SDS011;7218;51.480;7.006;2022-07-12T03:50:00;4.03;;;3.72;;
14268;SDS011;7218;51.480;7.006;2022-07-12T03:52:26;3.85;;;3.38;;
14268;SDS011;7218;51.480;7.006;2022-07-12T03:54:53;3.83;;;3.53;;
14268;SDS011;7218;51.480;7.006;2022-07-12T03:57:21;4.25;;;3.38;;
14268;SDS011;7218;51.480;7.006;2022-07-12T03:59:47;4.72;;;3.40;;
14268;SDS011;7218;51.480;7.006;2022-07-12T04:02:14;3.75;;;3.35;;
14268;SDS011;7218;51.480;7.006;2022-07-12T04:04:40;4.05;;;3.75;;
14268;SDS011;7218;51.480;7.006;2022-07-12T04:07:07;4.18;;;3.78;;
14268;SDS011;7218;51.480;7.006;2022-07-12T04:09:34;4.07;;;3.67;;
14268;SDS011;7218;51.480;7.006;2022-07-12T04:12:00;3.78;;;3.30;;
14268;SDS011;7218;51.480;7.006;2022-07-12T04:14:28;4.22;;;3.40;;
14268;SDS011;7218;51.480;7.006;2022-07-12T04:16:55;3.85;;;3.20;;
14268;SDS011;7218;51.480;7.006;2022-07-12T04:19:22;3.33;;;3.03;;
14268;SDS011;7218;51.480;7.006;2022-07-12T04:21:52;4.15;;;3.30;;
14268;SDS011;7218;51.480;7.006;2022-07-12T04:24:20;4.60;;;3.30;;
14268;SDS011;7218;51.480;7.006;2022-07-12T04:26:47;4.47;;;3.35;;
14268;SDS011;7218;51.480;7.006;2022-07-12T04:29:14;4.60;;;3.33;;
14268;SDS011;7218;51.480;7.006;2022-07-12T04:31:42;3.67;;;3.38;;
14268;SDS011;7218;51.480;7.006;2022-07-12T04:34:09;3.97;;;3.40;;
14268;SDS011;7218;51.480;7.006;2022-07-12T04:36:35;3.88;;;3.45;;
14268;SDS011;7218;51.480;7.006;2022-07-12T04:39:02;3.70;;;3.40;;
14268;SDS011;7218;51.480;7.006;2022-07-12T04:41:29;4.55;;;3.65;;
14268;SDS011;7218;51.480;7.006;2022-07-12T04:43:56;4.22;;;3.50;;
14268;SDS011;7218;51.480;7.006;2022-07-12T04:46:22;5.80;;;3.95;;
14268;SDS011;7218;51.480;7.006;2022-07-12T04:48:50;5.43;;;3.80;;
14268;SDS011;7218;51.480;7.006;2022-07-12T04:51:16;6.22;;;3.67;;
14268;SDS011;7218;51.480;7.006;2022-07-12T04:53:43;11.85;;;4.63;;
14268;SDS011;7218;51.480;7.006;2022-07-12T04:56:09;5.75;;;3.90;;
14268;SDS011;7218;51.480;7.006;2022-07-12T04:58:36;4.20;;;3.78;;
14268;SDS011;7218;51.480;7.006;2022-07-12T05:01:10;5.65;;;4.07;;
14268;SDS011;7218;51.480;7.006;2022-07-12T05:03:36;4.13;;;3.60;;
14268;SDS011;7218;51.480;7.006;2022-07-12T05:06:04;4.40;;;4.00;;
14268;SDS011;7218;51.480;7.006;2022-07-12T05:08:31;5.10;;;4.05;;
14268;SDS011;7218;51.480;7.006;2022-07-12T05:10:59;6.50;;;3.97;;
14268;SDS011;7218;51.480;7.006;2022-07-12T05:13:26;4.25;;;3.85;;
14268;SDS011;7218;51.480;7.006;2022-07-12T05:15:52;4.82;;;4.28;;
14268;SDS011;7218;51.480;7.006;2022-07-12T05:18:19;5.15;;;3.95;;
14268;SDS011;7218;51.480;7.006;2022-07-12T05:20:45;4.10;;;3.80;;
14268;SDS011;7218;51.480;7.006;2022-07-12T05:23:13;4.30;;;3.88;;
14268;SDS011;7218;51.480;7.006;2022-07-12T05:25:40;4.78;;;3.75;;
14268;SDS011;7218;51.480;7.006;2022-07-12T05:28:07;4.07;;;3.70;;
14268;SDS011;7218;51.480;7.006;2022-07-12T05:30:33;4.90;;;3.70;;
14268;SDS011;7218;51.480;7.006;2022-07-12T05:33:00;5.43;;;3.85;;
14268;SDS011;7218;51.480;7.006;2022-07-12T05:35:26;5.88;;;3.92;;
14268;SDS011;7218;51.480;7.006;2022-07-12T05:37:53;6.00;;;4.05;;
14268;SDS011;7218;51.480;7.006;2022-07-12T05:40:21;4.32;;;3.85;;
14268;SDS011;7218;51.480;7.006;2022-07-12T05:42:47;6.47;;;3.90;;
14268;SDS011;7218;51.480;7.006;2022-07-12T05:45:14;4.55;;;4.03;;
14268;SDS011;7218;51.480;7.006;2022-07-12T05:47:40;5.00;;;4.10;;
14268;SDS011;7218;51.480;7.006;2022-07-12T05:50:07;5.50;;;3.85;;
14268;SDS011;7218;51.480;7.006;2022-07-12T05:52:34;5.38;;;4.00;;
14268;SDS011;7218;51.480;7.006;2022-07-12T05:55:18;4.40;;;4.00;;
14268;SDS011;7218;51.480;7.006;2022-07-12T05:57:46;5.47;;;4.20;;
14268;SDS011;7218;51.480;7.006;2022-07-12T06:00:13;4.57;;;3.95;;
14268;SDS011;7218;51.480;7.006;2022-07-12T06:02:40;6.13;;;4.30;;
14268;SDS011;7218;51.480;7.006;2022-07-12T06:05:07;5.40;;;4.30;;
14268;SDS011;7218;51.480;7.006;2022-07-12T06:07:33;5.93;;;3.97;;
14268;SDS011;7218;51.480;7.006;2022-07-12T06:10:00;6.22;;;4.97;;
14268;SDS011;7218;51.480;7.006;2022-07-12T06:12:28;4.50;;;4.10;;
14268;SDS011;7218;51.480;7.006;2022-07-12T06:14:54;4.93;;;4.22;;
14268;SDS011;7218;51.480;7.006;2022-07-12T06:17:21;6.97;;;4.45;;
14268;SDS011;7218;51.480;7.006;2022-07-12T06:19:49;6.95;;;4.20;;
14268;SDS011;7218;51.480;7.006;2022-07-12T06:22:15;5.18;;;4.10;;
14268;SDS011;7218;51.480;7.006;2022-07-12T06:24:42;7.80;;;4.03;;
14268;SDS011;7218;51.480;7.006;2022-07-12T06:27:08;4.35;;;3.42;;
14268;SDS011;7218;51.480;7.006;2022-07-12T06:29:36;5.38;;;3.80;;
14268;SDS011;7218;51.480;7.006;2022-07-12T06:32:03;4.20;;;3.80;;
14268;SDS011;7218;51.480;7.006;2022-07-12T06:34:29;5.10;;;3.40;;
14268;SDS011;7218;51.480;7.006;2022-07-12T06:36:56;4.47;;;3.72;;
14268;SDS011;7218;51.480;7.006;2022-07-12T06:39:22;6.15;;;3.95;;
14268;SDS011;7218;51.480;7.006;2022-07-12T06:41:49;5.57;;;3.83;;
14268;SDS011;7218;51.480;7.006;2022-07-12T06:44:15;4.18;;;3.75;;
14268;SDS011;7218;51.480;7.006;2022-07-12T06:46:43;7.50;;;4.00;;
14268;SDS011;7218;51.480;7.006;2022-07-12T06:49:10;3.90;;;3.50;;
14268;SDS011;7218;51.480;7.006;2022-07-12T06:51:37;5.75;;;3.33;;
14268;SDS011;7218;51.480;7.006;2022-07-12T06:54:04;5.93;;;4.18;;
14268;SDS011;7218;51.480;7.006;2022-07-12T06:56:31;7.03;;;3.65;;
14268;SDS011;7218;51.480;7.006;2022-07-12T06:58:57;5.30;;;3.70;;
14268;SDS011;7218;51.480;7.006;2022-07-12T07:01:24;4.15;;;3.75;;
14268;SDS011;7218;51.480;7.006;2022-07-12T07:03:52;4.30;;;3.20;;
14268;SDS011;7218;51.480;7.006;2022-07-12T07:06:19;4.68;;;4.18;;
14268;SDS011;7218;51.480;7.006;2022-07-12T07:08:45;3.80;;;3.42;;
14268;SDS011;7218;51.480;7.006;2022-07-12T07:11:12;5.07;;;4.20;;
14268;SDS011;7218;51.480;7.006;2022-07-12T07:13:39;4.18;;;3.72;;
14268;SDS011;7218;51.480;7.006;2022-07-12T07:16:05;5.15;;;3.63;;
14268;SDS011;7218;51.480;7.006;2022-07-12T07:18:32;4.05;;;3.50;;
14268;SDS011;7218;51.480;7.006;2022-07-12T07:21:00;4.38;;;3.42;;
14268;SDS011;7218;51.480;7.006;2022-07-12T07:23:27;5.70;;;3.92;;
14268;SDS011;7218;51.480;7.006;2022-07-12T07:25:54;4.97;;;3.60;;
14268;SDS011;7218;51.480;7.006;2022-07-12T07:28:20;4.38;;;3.70;;
14268;SDS011;7218;51.480;7.006;2022-07-12T07:30:47;5.88;;;4.15;;
14268;SDS011;7218;51.480;7.006;2022-07-12T07:33:19;6.20;;;4.22;;
14268;SDS011;7218;51.480;7.006;2022-07-12T07:35:46;4.85;;;3.65;;
14268;SDS011;7218;51.480;7.006;2022-07-12T07:38:15;6.70;;;3.50;;
14268;SDS011;7218;51.480;7.006;2022-07-12T07:40:42;4.80;;;3.85;;
14268;SDS011;7218;51.480;7.006;2022-07-12T07:43:09;5.53;;;3.65;;
14268;SDS011;7218;51.480;7.006;2022-07-12T07:45:36;5.95;;;4.10;;
14268;SDS011;7218;51.480;7.006;2022-07-12T07:48:03;7.18;;;3.95;;
14268;SDS011;7218;51.480;7.006;2022-07-12T07:50:29;5.35;;;3.50;;
14268;SDS011;7218;51.480;7.006;2022-07-12T07:52:56;6.22;;;3.70;;
14268;SDS011;7218;51.480;7.006;2022-07-12T07:55:24;4.90;;;3.75;;
14268;SDS011;7218;51.480;7.006;2022-07-12T07:57:50;8.60;;;3.58;;
14268;SDS011;7218;51.480;7.006;2022-07-12T08:00:17;5.60;;;3.20;;
14268;SDS011;7218;51.480;7.006;2022-07-12T08:02:43;3.83;;;3.15;;
14268;SDS011;7218;51.480;7.006;2022-07-12T08:05:10;7.68;;;2.97;;
14268;SDS011;7218;51.480;7.006;2022-07-12T08:07:36;3.80;;;2.50;;
14268;SDS011;7218;51.480;7.006;2022-07-12T08:10:03;6.47;;;2.72;;
14268;SDS011;7218;51.480;7.006;2022-07-12T08:12:31;6.13;;;3.20;;
14268;SDS011;7218;51.480;7.006;2022-07-12T08:14:58;3.03;;;2.67;;
14268;SDS011;7218;51.480;7.006;2022-07-12T08:17:24;5.93;;;3.80;;
14268;SDS011;7218;51.480;7.006;2022-07-12T08:19:51;4.95;;;3.60;;
14268;SDS011;7218;51.480;7.006;2022-07-12T08:22:17;4.85;;;3.35;;
14268;SDS011;7218;51.480;7.006;2022-07-12T08:24:44;4.82;;;3.15;;
14268;SDS011;7218;51.480;7.006;2022-07-12T08:27:10;6.90;;;3.22;;
14268;SDS011;7218;51.480;7.006;2022-07-12T08:29:38;5.50;;;2.80;;
14268;SDS011;7218;51.480;7.006;2022-07-12T08:32:05;5.28;;;2.67;;
14268;SDS011;7218;51.480;7.006;2022-07-12T08:34:32;6.57;;;3.10;;
14268;SDS011;7218;51.480;7.006;2022-07-12T08:36:59;4.70;;;3.00;;
14268;SDS011;7218;51.480;7.006;2022-07-12T08:39:25;2.65;;;2.30;;
14268;SDS011;7218;51.480;7.006;2022-07-12T08:41:52;5.13;;;2.03;;
14268;SDS011;7218;51.480;7.006;2022-07-12T08:44:18;3.88;;;2.60;;
14268;SDS011;7218;51.480;7.006;2022-07-12T08:46:46;5.38;;;2.10;;
14268;SDS011;7218;51.480;7.006;2022-07-12T08:49:13;5.18;;;2.40;;
14268;SDS011;7218;51.480;7.006;2022-07-12T08:51:39;3.25;;;2.10;;
14268;SDS011;7218;51.480;7.006;2022-07-12T08:54:06;4.75;;;2.28;;
14268;SDS011;7218;51.480;7.006;2022-07-12T08:56:35;3.83;;;2.00;;
14268;SDS011;7218;51.480;7.006;2022-07-12T08:59:10;5.95;;;2.20;;
14268;SDS011;7218;51.480;7.006;2022-07-12T09:01:39;4.03;;;2.38;;
14268;SDS011;7218;51.480;7.006;2022-07-12T09:04:11;3.80;;;2.35;;
14268;SDS011;7218;51.480;7.006;2022-07-12T09:06:38;4.32;;;2.30;;
14268;SDS011;7218;51.480;7.006;2022-07-12T09:09:05;3.03;;;2.20;;
14268;SDS011;7218;51.480;7.006;2022-07-12T09:11:33;3.08;;;2.03;;
14268;SDS011;7218;51.480;7.006;2022-07-12T09:14:02;3.67;;;2.38;;
14268;SDS011;7218;51.480;7.006;2022-07-12T09:16:29;5.45;;;2.50;;
14268;SDS011;7218;51.480;7.006;2022-07-12T09:19:16;3.28;;;2.33;;
14268;SDS011;7218;51.480;7.006;2022-07-12T09:21:49;2.70;;;2.00;;
14268;SDS011;7218;51.480;7.006;2022-07-12T09:24:17;2.65;;;1.80;;
14268;SDS011;7218;51.480;7.006;2022-07-12T09:26:44;4.35;;;1.95;;
14268;SDS011;7218;51.480;7.006;2022-07-12T09:29:11;3.88;;;2.20;;
14268;SDS011;7218;51.480;7.006;2022-07-12T09:31:39;2.13;;;1.92;;
14268;SDS011;7218;51.480;7.006;2022-07-12T09:34:28;4.38;;;2.30;;
14268;SDS011;7218;51.480;7.006;2022-07-12T09:37:12;3.90;;;2.50;;
14268;SDS011;7218;51.480;7.006;2022-07-12T09:39:40;3.67;;;1.70;;
14268;SDS011;7218;51.480;7.006;2022-07-12T09:42:07;4.25;;;1.90;;
14268;SDS011;7218;51.480;7.006;2022-07-12T09:44:35;2.53;;;1.80;;
14268;SDS011;7218;51.480;7.006;2022-07-12T09:47:02;2.97;;;2.08;;
14268;SDS011;7218;51.480;7.006;2022-07-12T09:49:30;3.15;;;1.75;;
14268;SDS011;7218;51.480;7.006;2022-07-12T09:51:59;1.60;;;1.50;;
14268;SDS011;7218;51.480;7.006;2022-07-12T09:54:28;3.30;;;1.80;;
14268;SDS011;7218;51.480;7.006;2022-07-12T09:56:58;2.17;;;1.60;;
14268;SDS011;7218;51.480;7.006;2022-07-12T09:59:28;3.38;;;2.00;;
14268;SDS011;7218;51.480;7.006;2022-07-12T10:01:56;2.40;;;1.75;;
14268;SDS011;7218;51.480;7.006;2022-07-12T10:04:26;3.85;;;1.90;;
14268;SDS011;7218;51.480;7.006;2022-07-12T10:06:57;4.15;;;1.90;;
14268;SDS011;7218;51.480;7.006;2022-07-12T10:09:24;5.72;;;1.83;;
14268;SDS011;7218;51.480;7.006;2022-07-12T10:11:51;3.28;;;1.50;;
14268;SDS011;7218;51.480;7.006;2022-07-12T10:14:19;4.32;;;2.05;;
14268;SDS011;7218;51.480;7.006;2022-07-12T10:16:46;1.95;;;1.40;;
14268;SDS011;7218;51.480;7.006;2022-07-12T10:19:23;5.18;;;1.70;;
14268;SDS011;7218;51.480;7.006;2022-07-12T10:21:51;3.72;;;1.63;;
14268;SDS011;7218;51.480;7.006;2022-07-12T10:27:29;3.50;;;1.60;;
14268;SDS011;7218;51.480;7.006;2022-07-12T10:32:44;1.42;;;1.23;;
14268;SDS011;7218;51.480;7.006;2022-07-12T10:35:12;2.85;;;1.40;;
14268;SDS011;7218;51.480;7.006;2022-07-12T10:37:41;2.03;;;1.45;;
14268;SDS011;7218;51.480;7.006;2022-07-12T10:40:29;2.00;;;1.50;;
14268;SDS011;7218;51.480;7.006;2022-07-12T10:43:12;4.22;;;2.00;;
14268;SDS011;7218;51.480;7.006;2022-07-12T10:45:40;2.13;;;1.50;;
14268;SDS011;7218;51.480;7.006;2022-07-12T10:48:08;2.58;;;1.55;;
14268;SDS011;7218;51.480;7.006;2022-07-12T10:53:22;2.08;;;1.42;;
14268;SDS011;7218;51.480;7.006;2022-07-12T10:56:07;3.13;;;1.70;;
14268;SDS011;7218;51.480;7.006;2022-07-12T10:58:40;3.00;;;1.40;;
14268;SDS011;7218;51.480;7.006;2022-07-12T11:01:08;2.45;;;1.50;;
14268;SDS011;7218;51.480;7.006;2022-07-12T11:03:40;4.05;;;1.50;;
14268;SDS011;7218;51.480;7.006;2022-07-12T11:06:08;2.50;;;1.60;;
14268;SDS011;7218;51.480;7.006;2022-07-12T11:11:26;2.53;;;1.60;;
14268;SDS011;7218;51.480;7.006;2022-07-12T11:13:54;2.92;;;1.60;;
14268;SDS011;7218;51.480;7.006;2022-07-12T11:16:22;2.13;;;1.58;;
14268;SDS011;7218;51.480;7.006;2022-07-12T11:18:49;2.95;;;1.98;;
14268;SDS011;7218;51.480;7.006;2022-07-12T11:21:17;3.13;;;1.60;;
14268;SDS011;7218;51.480;7.006;2022-07-12T11:23:44;2.20;;;1.60;;
14268;SDS011;7218;51.480;7.006;2022-07-12T11:26:11;2.08;;;1.90;;
14268;SDS011;7218;51.480;7.006;2022-07-12T11:28:41;1.90;;;1.70;;
14268;SDS011;7218;51.480;7.006;2022-07-12T11:31:09;3.25;;;2.35;;
14268;SDS011;7218;51.480;7.006;2022-07-12T11:33:37;1.80;;;1.50;;
14268;SDS011;7218;51.480;7.006;2022-07-12T11:36:06;3.20;;;1.75;;
14268;SDS011;7218;51.480;7.006;2022-07-12T11:38:34;2.13;;;1.50;;
14268;SDS011;7218;51.480;7.006;2022-07-12T11:41:03;1.80;;;1.70;;
14268;SDS011;7218;51.480;7.006;2022-07-12T11:43:30;3.80;;;1.70;;
14268;SDS011;7218;51.480;7.006;2022-07-12T11:45:59;4.78;;;1.50;;
14268;SDS011;7218;51.480;7.006;2022-07-12T11:48:27;3.05;;;1.48;;
14268;SDS011;7218;51.480;7.006;2022-07-12T11:50:54;5.05;;;1.60;;
14268;SDS011;7218;51.480;7.006;2022-07-12T11:53:23;1.70;;;1.60;;
14268;SDS011;7218;51.480;7.006;2022-07-12T11:55:50;2.22;;;1.73;;
14268;SDS011;7218;51.480;7.006;2022-07-12T11:58:18;1.50;;;1.40;;
14268;SDS011;7218;51.480;7.006;2022-07-12T12:00:45;1.50;;;1.38;;
14268;SDS011;7218;51.480;7.006;2022-07-12T12:03:14;2.80;;;2.42;;
14268;SDS011;7218;51.480;7.006;2022-07-12T12:05:43;1.85;;;1.60;;
14268;SDS011;7218;51.480;7.006;2022-07-12T12:08:10;3.95;;;2.65;;
14268;SDS011;7218;51.480;7.006;2022-07-12T12:10:39;5.35;;;1.80;;
14268;SDS011;7218;51.480;7.006;2022-07-12T12:13:12;2.22;;;1.38;;
14268;SDS011;7218;51.480;7.006;2022-07-12T12:15:39;1.75;;;1.38;;
14268;SDS011;7218;51.480;7.006;2022-07-12T12:18:07;1.88;;;1.40;;
14268;SDS011;7218;51.480;7.006;2022-07-12T12:20:35;1.52;;;1.42;;
14268;SDS011;7218;51.480;7.006;2022-07-12T12:23:03;3.40;;;1.45;;
14268;SDS011;7218;51.480;7.006;2022-07-12T12:25:32;1.80;;;1.25;;
14268;SDS011;7218;51.480;7.006;2022-07-12T12:28:00;2.25;;;1.40;;
14268;SDS011;7218;51.480;7.006;2022-07-12T12:30:29;1.30;;;1.20;;
14268;SDS011;7218;51.480;7.006;2022-07-12T12:32:57;2.75;;;1.30;;
14268;SDS011;7218;51.480;7.006;2022-07-12T12:35:29;1.85;;;1.60;;
14268;SDS011;7218;51.480;7.006;2022-07-12T12:37:59;1.70;;;1.60;;
14268;SDS011;7218;51.480;7.006;2022-07-12T12:40:27;1.95;;;1.30;;
14268;SDS011;7218;51.480;7.006;2022-07-12T12:43:05;1.67;;;1.10;;
14268;SDS011;7218;51.480;7.006;2022-07-12T12:45:32;1.35;;;1.25;;
14268;SDS011;7218;51.480;7.006;2022-07-12T12:47:59;4.95;;;1.58;;
14268;SDS011;7218;51.480;7.006;2022-07-12T12:50:39;1.98;;;1.20;;
14268;SDS011;7218;51.480;7.006;2022-07-12T12:53:12;1.85;;;1.23;;
14268;SDS011;7218;51.480;7.006;2022-07-12T12:55:40;1.85;;;1.30;;
14268;SDS011;7218;51.480;7.006;2022-07-12T12:58:07;2.17;;;1.40;;
14268;SDS011;7218;51.480;7.006;2022-07-12T13:00:35;1.40;;;1.30;;
14268;SDS011;7218;51.480;7.006;2022-07-12T13:03:03;1.48;;;1.30;;
14268;SDS011;7218;51.480;7.006;2022-07-12T13:05:30;1.40;;;1.30;;
14268;SDS011;7218;51.480;7.006;2022-07-12T13:07:56;3.45;;;1.30;;
14268;SDS011;7218;51.480;7.006;2022-07-12T13:10:24;2.13;;;1.40;;
14268;SDS011;7218;51.480;7.006;2022-07-12T13:12:51;3.80;;;1.40;;
14268;SDS011;7218;51.480;7.006;2022-07-12T13:15:18;1.38;;;1.27;;
14268;SDS011;7218;51.480;7.006;2022-07-12T13:17:45;2.30;;;1.10;;
14268;SDS011;7218;51.480;7.006;2022-07-12T13:20:13;3.42;;;1.13;;
14268;SDS011;7218;51.480;7.006;2022-07-12T13:22:40;1.20;;;1.10;;
14268;SDS011;7218;51.480;7.006;2022-07-12T13:25:07;1.25;;;1.15;;
14268;SDS011;7218;51.480;7.006;2022-07-12T13:27:36;1.40;;;1.15;;
14268;SDS011;7218;51.480;7.006;2022-07-12T13:30:02;3.80;;;1.42;;
14268;SDS011;7218;51.480;7.006;2022-07-12T13:32:31;1.85;;;1.70;;
14268;SDS011;7218;51.480;7.006;2022-07-12T13:34:57;1.88;;;1.30;;
14268;SDS011;7218;51.480;7.006;2022-07-12T13:37:24;2.85;;;1.52;;
14268;SDS011;7218;51.480;7.006;2022-07-12T13:39:51;1.80;;;1.50;;
14268;SDS011;7218;51.480;7.006;2022-07-12T13:42:36;3.20;;;1.70;;
14268;SDS011;7218;51.480;7.006;2022-07-12T13:45:03;2.00;;;1.60;;
14268;SDS011;7218;51.480;7.006;2022-07-12T13:47:31;1.50;;;1.40;;
14268;SDS011;7218;51.480;7.006;2022-07-12T13:49:58;3.88;;;1.80;;
14268;SDS011;7218;51.480;7.006;2022-07-12T13:52:24;1.73;;;1.60;;
14268;SDS011;7218;51.480;7.006;2022-07-12T13:54:51;2.97;;;1.65;;
14268;SDS011;7218;51.480;7.006;2022-07-12T13:57:17;2.25;;;1.70;;
14268;SDS011;7218;51.480;7.006;2022-07-12T13:59:45;2.88;;;1.85;;
14268;SDS011;7218;51.480;7.006;2022-07-12T14:02:12;3.63;;;1.90;;
14268;SDS011;7218;51.480;7.006;2022-07-12T14:04:39;1.83;;;1.50;;
14268;SDS011;7218;51.480;7.006;2022-07-12T14:07:05;4.13;;;2.15;;
14268;SDS011;7218;51.480;7.006;2022-07-12T14:09:32;4.55;;;2.55;;
14268;SDS011;7218;51.480;7.006;2022-07-12T14:11:58;3.55;;;1.95;;
14268;SDS011;7218;51.480;7.006;2022-07-12T14:14:26;4.22;;;1.70;;
14268;SDS011;7218;51.480;7.006;2022-07-12T14:17:08;3.58;;;1.70;;
14268;SDS011;7218;51.480;7.006;2022-07-12T14:19:35;5.55;;;2.00;;
14268;SDS011;7218;51.480;7.006;2022-07-12T14:22:01;4.15;;;1.98;;
14268;SDS011;7218;51.480;7.006;2022-07-12T14:24:29;2.65;;;1.88;;
14268;SDS011;7218;51.480;7.006;2022-07-12T14:26:55;2.10;;;1.90;;
14268;SDS011;7218;51.480;7.006;2022-07-12T14:29:22;3.80;;;2.95;;
14268;SDS011;7218;51.480;7.006;2022-07-12T14:31:48;4.45;;;2.90;;
14268;SDS011;7218;51.480;7.006;2022-07-12T14:34:18;2.30;;;1.90;;
14268;SDS011;7218;51.480;7.006;2022-07-12T14:36:44;3.17;;;1.80;;
14268;SDS011;7218;51.480;7.006;2022-07-12T14:39:11;2.20;;;2.00;;
14268;SDS011;7218;51.480;7.006;2022-07-12T14:41:38;2.20;;;1.58;;
14268;SDS011;7218;51.480;7.006;2022-07-12T14:44:04;2.90;;;2.10;;
14268;SDS011;7218;51.480;7.006;2022-07-12T14:46:32;6.68;;;2.20;;
14268;SDS011;7218;51.480;7.006;2022-07-12T14:48:58;3.10;;;2.10;;
14268;SDS011;7218;51.480;7.006;2022-07-12T14:51:26;2.72;;;2.53;;
14268;SDS011;7218;51.480;7.006;2022-07-12T14:53:53;6.05;;;2.78;;
14268;SDS011;7218;51.480;7.006;2022-07-12T14:56:19;9.02;;;3.60;;
14268;SDS011;7218;51.480;7.006;2022-07-12T14:58:46;4.90;;;2.88;;
14268;SDS011;7218;51.480;7.006;2022-07-12T15:01:13;4.00;;;2.90;;
14268;SDS011;7218;51.480;7.006;2022-07-12T15:03:42;4.57;;;3.03;;
14268;SDS011;7218;51.480;7.006;2022-07-12T15:06:08;9.48;;;3.05;;
14268;SDS011;7218;51.480;7.006;2022-07-12T15:08:36;6.28;;;2.72;;
14268;SDS011;7218;51.480;7.006;2022-07-12T15:11:02;6.47;;;3.05;;
14268;SDS011;7218;51.480;7.006;2022-07-12T15:13:29;5.95;;;3.50;;
14268;SDS011;7218;51.480;7.006;2022-07-12T15:15:56;5.57;;;3.45;;